sensor_id;sensor_type;location;lat;lon;timestamp;pressure;altitude;pressure_sealevel;temperature;humidity
28432;BME280;15664;51.302;7.744;2022-12-24T00:01:07;83206.09;;;-146.98;98.36
28432;BME280;15664;51.302;7.744;2022-12-24T00:03:34;83269.22;;;-146.98;98.89
28432;BME280;15664;51.302;7.744;2022-12-24T00:06:04;83214.22;;;-146.98;99.42
28432;BME280;15664;51.302;7.744;2022-12-24T00:08:29;83210.16;;;-146.98;100.00
28432;BME280;15664;51.302;7.744;2022-12-24T00:10:55;83226.44;;;-146.98;100.00
28432;BME280;15664;51.302;7.744;2022-12-24T00:13:20;83230.53;;;-146.98;100.00
28432;BME280;15664;51.302;7.744;2022-12-24T00:15:46;83234.59;;;-146.98;100.00
28432;BME280;15664;51.302;7.744;2022-12-24T00:18:11;83254.97;;;-146.98;100.00
28432;BME280;15664;51.302;7.744;2022-12-24T00:20:37;83183.69;;;-146.98;100.00
28432;BME280;15664;51.302;7.744;2022-12-24T00:23:02;83220.34;;;-146.98;100.00
28432;BME280;15664;51.302;7.744;2022-12-24T00:25:27;83220.34;;;-146.98;100.00
28432;BME280;15664;51.302;7.744;2022-12-24T00:27:52;83210.16;;;-146.98;100.00
28432;BME280;15664;51.302;7.744;2022-12-24T00:30:18;83222.38;;;-146.98;100.00
28432;BME280;15664;51.302;7.744;2022-12-24T00:32:43;83169.44;;;-146.98;99.48
28432;BME280;15664;51.302;7.744;2022-12-24T00:35:08;83222.38;;;-146.98;98.98
28432;BME280;15664;51.302;7.744;2022-12-24T00:37:34;83220.34;;;-146.98;99.06
28432;BME280;15664;51.302;7.744;2022-12-24T00:39:59;83202.00;;;-146.98;98.60
28432;BME280;15664;51.302;7.744;2022-12-24T00:42:24;83232.56;;;-146.98;98.53
28432;BME280;15664;51.302;7.744;2022-12-24T00:44:50;83197.94;;;-146.98;98.02
28432;BME280;15664;51.302;7.744;2022-12-24T00:47:15;83189.78;;;-146.98;97.86
28432;BME280;15664;51.302;7.744;2022-12-24T00:49:40;83181.66;;;-146.98;98.16
28432;BME280;15664;51.302;7.744;2022-12-24T00:52:05;83175.53;;;-146.98;97.97
28432;BME280;15664;51.302;7.744;2022-12-24T00:54:31;83234.59;;;-146.98;98.00
28432;BME280;15664;51.302;7.744;2022-12-24T00:56:56;83248.84;;;-146.98;98.63
28432;BME280;15664;51.302;7.744;2022-12-24T00:59:21;83230.53;;;-146.98;98.76
28432;BME280;15664;51.302;7.744;2022-12-24T01:01:47;83230.53;;;-146.98;98.90
28432;BME280;15664;51.302;7.744;2022-12-24T01:04:12;83263.09;;;-146.98;98.81
28432;BME280;15664;51.302;7.744;2022-12-24T01:06:56;83187.75;;;-146.98;98.52
28432;BME280;15664;51.302;7.744;2022-12-24T01:09:21;83230.53;;;-146.98;98.25
28432;BME280;15664;51.302;7.744;2022-12-24T01:11:46;83273.28;;;-146.98;97.67
28432;BME280;15664;51.302;7.744;2022-12-24T01:14:11;83246.81;;;-146.98;97.44
28432;BME280;15664;51.302;7.744;2022-12-24T01:16:37;83246.81;;;-146.98;96.36
28432;BME280;15664;51.302;7.744;2022-12-24T01:19:02;83238.66;;;-146.98;96.10
28432;BME280;15664;51.302;7.744;2022-12-24T01:21:28;83218.31;;;-146.98;95.21
28432;BME280;15664;51.302;7.744;2022-12-24T01:23:53;83234.59;;;-146.98;94.49
28432;BME280;15664;51.302;7.744;2022-12-24T01:26:18;83254.97;;;-146.98;94.66
28432;BME280;15664;51.302;7.744;2022-12-24T01:28:44;83254.97;;;-146.98;94.84
28432;BME280;15664;51.302;7.744;2022-12-24T01:31:15;83254.97;;;-146.98;93.87
28432;BME280;15664;51.302;7.744;2022-12-24T01:33:41;83214.22;;;-146.98;93.73
28432;BME280;15664;51.302;7.744;2022-12-24T01:36:07;83226.44;;;-146.98;93.80
28432;BME280;15664;51.302;7.744;2022-12-24T01:38:33;83226.44;;;-146.98;93.29
28432;BME280;15664;51.302;7.744;2022-12-24T01:40:58;83267.19;;;-146.98;92.50
28432;BME280;15664;51.302;7.744;2022-12-24T01:43:42;83210.16;;;-146.98;92.33
28432;BME280;15664;51.302;7.744;2022-12-24T01:46:18;83222.38;;;-146.98;92.75
28432;BME280;15664;51.302;7.744;2022-12-24T01:48:55;83232.56;;;-146.98;93.06
28432;BME280;15664;51.302;7.744;2022-12-24T01:54:03;83210.16;;;-146.98;92.27
28432;BME280;15664;51.302;7.744;2022-12-24T01:56:30;83214.22;;;-146.98;92.62
28432;BME280;15664;51.302;7.744;2022-12-24T01:59:02;83197.94;;;-146.98;91.94
28432;BME280;15664;51.302;7.744;2022-12-24T02:01:28;83228.50;;;-146.98;91.62
28432;BME280;15664;51.302;7.744;2022-12-24T02:03:54;83216.28;;;-146.98;91.88
28432;BME280;15664;51.302;7.744;2022-12-24T02:06:20;83271.25;;;-146.98;91.85
28432;BME280;15664;51.302;7.744;2022-12-24T02:08:46;83242.75;;;-146.98;92.07
28432;BME280;15664;51.302;7.744;2022-12-24T02:11:17;83236.63;;;-146.98;91.02
28432;BME280;15664;51.302;7.744;2022-12-24T02:13:56;83222.38;;;-146.98;91.27
28432;BME280;15664;51.302;7.744;2022-12-24T02:16:53;83248.84;;;-146.98;90.83
28432;BME280;15664;51.302;7.744;2022-12-24T02:22:45;83242.75;;;-146.98;91.16
28432;BME280;15664;51.302;7.744;2022-12-24T02:30:44;83202.00;;;-146.98;91.02
28432;BME280;15664;51.302;7.744;2022-12-24T02:33:38;83216.28;;;-146.98;91.18
28432;BME280;15664;51.302;7.744;2022-12-24T02:36:19;83236.63;;;-146.98;91.07
28432;BME280;15664;51.302;7.744;2022-12-24T02:38:51;83208.13;;;-146.98;91.43
28432;BME280;15664;51.302;7.744;2022-12-24T02:41:29;83195.91;;;-146.98;91.25
28432;BME280;15664;51.302;7.744;2022-12-24T02:44:16;83218.31;;;-146.98;91.60
28432;BME280;15664;51.302;7.744;2022-12-24T02:46:45;83234.59;;;-146.98;90.82
28432;BME280;15664;51.302;7.744;2022-12-24T02:49:11;83254.97;;;-146.98;91.23
28432;BME280;15664;51.302;7.744;2022-12-24T02:51:37;83242.75;;;-146.98;91.00
28432;BME280;15664;51.302;7.744;2022-12-24T02:54:03;83218.31;;;-146.98;90.98
28432;BME280;15664;51.302;7.744;2022-12-24T02:56:36;83171.47;;;-146.98;90.95
28432;BME280;15664;51.302;7.744;2022-12-24T03:05:12;83202.00;;;-146.98;89.97
28432;BME280;15664;51.302;7.744;2022-12-24T03:10:45;83232.56;;;-146.98;90.49
28432;BME280;15664;51.302;7.744;2022-12-24T03:13:14;83291.63;;;-146.98;89.65
28432;BME280;15664;51.302;7.744;2022-12-24T03:15:40;83234.59;;;-146.98;89.38
28432;BME280;15664;51.302;7.744;2022-12-24T03:18:08;83230.53;;;-146.98;89.19
28432;BME280;15664;51.302;7.744;2022-12-24T03:20:44;83173.50;;;-146.98;89.44
28432;BME280;15664;51.302;7.744;2022-12-24T03:23:10;83246.81;;;-146.98;89.31
28432;BME280;15664;51.302;7.744;2022-12-24T03:25:39;83187.75;;;-146.98;89.13
28432;BME280;15664;51.302;7.744;2022-12-24T03:28:06;83189.78;;;-146.98;88.29
28432;BME280;15664;51.302;7.744;2022-12-24T03:30:33;83218.31;;;-146.98;88.69
28432;BME280;15664;51.302;7.744;2022-12-24T03:32:59;83228.50;;;-146.98;87.92
28432;BME280;15664;51.302;7.744;2022-12-24T03:35:24;83226.44;;;-146.98;88.49
28432;BME280;15664;51.302;7.744;2022-12-24T03:37:50;83218.31;;;-146.98;88.62
28432;BME280;15664;51.302;7.744;2022-12-24T03:40:15;83222.38;;;-146.98;88.91
28432;BME280;15664;51.302;7.744;2022-12-24T03:42:40;83232.56;;;-146.98;89.00
28432;BME280;15664;51.302;7.744;2022-12-24T03:45:06;83226.44;;;-146.98;88.98
28432;BME280;15664;51.302;7.744;2022-12-24T03:47:31;83246.81;;;-146.98;88.96
28432;BME280;15664;51.302;7.744;2022-12-24T03:49:57;83197.94;;;-146.98;89.34
28432;BME280;15664;51.302;7.744;2022-12-24T03:52:22;83212.19;;;-146.98;88.53
28432;BME280;15664;51.302;7.744;2022-12-24T03:54:47;83191.84;;;-146.98;88.65
28432;BME280;15664;51.302;7.744;2022-12-24T03:57:13;83311.97;;;-146.98;88.78
28432;BME280;15664;51.302;7.744;2022-12-24T03:59:38;83218.31;;;-146.98;88.59
28432;BME280;15664;51.302;7.744;2022-12-24T04:02:04;83161.28;;;-146.98;88.82
28432;BME280;15664;51.302;7.744;2022-12-24T04:04:29;83222.38;;;-146.98;89.00
28432;BME280;15664;51.302;7.744;2022-12-24T04:06:54;83206.09;;;-146.98;89.41
28432;BME280;15664;51.302;7.744;2022-12-24T04:09:19;83236.63;;;-146.98;89.83
28432;BME280;15664;51.302;7.744;2022-12-24T04:11:45;83206.09;;;-146.98;90.28
28432;BME280;15664;51.302;7.744;2022-12-24T04:14:10;83202.00;;;-146.98;90.84
28432;BME280;15664;51.302;7.744;2022-12-24T04:16:35;83261.06;;;-146.98;90.56
28432;BME280;15664;51.302;7.744;2022-12-24T04:19:01;83228.50;;;-146.98;90.41
28432;BME280;15664;51.302;7.744;2022-12-24T04:21:26;83202.00;;;-146.98;90.48
28432;BME280;15664;51.302;7.744;2022-12-24T04:23:51;83185.72;;;-146.98;90.87
28432;BME280;15664;51.302;7.744;2022-12-24T04:26:17;83218.31;;;-146.98;91.74
28432;BME280;15664;51.302;7.744;2022-12-24T04:28:42;83224.41;;;-146.98;93.51
28432;BME280;15664;51.302;7.744;2022-12-24T04:31:11;83224.41;;;-146.98;94.81
28432;BME280;15664;51.302;7.744;2022-12-24T04:33:37;83230.53;;;-146.98;95.72
28432;BME280;15664;51.302;7.744;2022-12-24T04:36:03;83259.03;;;-146.98;96.35
28432;BME280;15664;51.302;7.744;2022-12-24T04:38:29;83263.09;;;-146.98;96.93
28432;BME280;15664;51.302;7.744;2022-12-24T04:43:27;83287.53;;;-146.98;97.66
28432;BME280;15664;51.302;7.744;2022-12-24T04:45:53;83240.72;;;-146.98;98.04
28432;BME280;15664;51.302;7.744;2022-12-24T04:48:18;83246.81;;;-146.98;98.29
28432;BME280;15664;51.302;7.744;2022-12-24T04:50:43;83214.22;;;-146.98;98.40
28432;BME280;15664;51.302;7.744;2022-12-24T04:53:09;83285.50;;;-146.98;98.38
28432;BME280;15664;51.302;7.744;2022-12-24T04:55:34;83246.81;;;-146.98;98.33
28432;BME280;15664;51.302;7.744;2022-12-24T04:57:59;83275.31;;;-146.98;98.20
28432;BME280;15664;51.302;7.744;2022-12-24T05:00:25;83244.78;;;-146.98;98.56
28432;BME280;15664;51.302;7.744;2022-12-24T05:02:50;83210.16;;;-146.98;98.60
28432;BME280;15664;51.302;7.744;2022-12-24T05:05:15;83267.19;;;-146.98;98.65
28432;BME280;15664;51.302;7.744;2022-12-24T05:07:40;83234.59;;;-146.98;98.45
28432;BME280;15664;51.302;7.744;2022-12-24T05:10:06;83244.78;;;-146.98;98.00
28432;BME280;15664;51.302;7.744;2022-12-24T05:12:32;83218.31;;;-146.98;98.02
28432;BME280;15664;51.302;7.744;2022-12-24T05:14:57;83202.00;;;-146.98;98.07
28432;BME280;15664;51.302;7.744;2022-12-24T05:17:22;83263.09;;;-146.98;97.58
28432;BME280;15664;51.302;7.744;2022-12-24T05:19:48;83238.66;;;-146.98;97.81
28432;BME280;15664;51.302;7.744;2022-12-24T05:22:13;83259.03;;;-146.98;97.42
28432;BME280;15664;51.302;7.744;2022-12-24T05:24:57;83246.81;;;-146.98;97.40
28432;BME280;15664;51.302;7.744;2022-12-24T05:27:41;83275.31;;;-146.98;97.89
28432;BME280;15664;51.302;7.744;2022-12-24T05:30:06;83230.53;;;-146.98;98.02
28432;BME280;15664;51.302;7.744;2022-12-24T05:32:32;83242.75;;;-146.98;98.31
28432;BME280;15664;51.302;7.744;2022-12-24T05:34:57;83226.44;;;-146.98;98.69
28432;BME280;15664;51.302;7.744;2022-12-24T05:37:22;83281.44;;;-146.98;99.19
28432;BME280;15664;51.302;7.744;2022-12-24T05:39:48;83220.34;;;-146.98;99.39
28432;BME280;15664;51.302;7.744;2022-12-24T05:42:13;83254.97;;;-146.98;99.48
28432;BME280;15664;51.302;7.744;2022-12-24T05:44:38;83252.94;;;-146.98;99.94
28432;BME280;15664;51.302;7.744;2022-12-24T05:47:03;83275.31;;;-146.98;100.00
28432;BME280;15664;51.302;7.744;2022-12-24T05:49:29;83242.75;;;-146.98;100.00
28432;BME280;15664;51.302;7.744;2022-12-24T05:51:55;83183.69;;;-146.98;100.00
28432;BME280;15664;51.302;7.744;2022-12-24T05:54:20;83254.97;;;-146.98;100.00
28432;BME280;15664;51.302;7.744;2022-12-24T05:56:45;83257.00;;;-146.98;100.00
28432;BME280;15664;51.302;7.744;2022-12-24T05:59:10;83236.63;;;-146.98;100.00
28432;BME280;15664;51.302;7.744;2022-12-24T06:01:36;83267.19;;;-146.98;100.00
28432;BME280;15664;51.302;7.744;2022-12-24T06:04:01;83279.41;;;-146.98;100.00
28432;BME280;15664;51.302;7.744;2022-12-24T06:06:27;83236.63;;;-146.98;100.00
28432;BME280;15664;51.302;7.744;2022-12-24T06:08:53;83269.22;;;-146.98;100.00
28432;BME280;15664;51.302;7.744;2022-12-24T06:11:22;83240.72;;;-146.98;100.00
28432;BME280;15664;51.302;7.744;2022-12-24T06:13:48;83236.63;;;-146.98;100.00
28432;BME280;15664;51.302;7.744;2022-12-24T06:16:16;83259.03;;;-146.98;99.74
28432;BME280;15664;51.302;7.744;2022-12-24T06:18:42;83189.78;;;-146.98;99.52
28432;BME280;15664;51.302;7.744;2022-12-24T06:21:08;83230.53;;;-146.98;99.48
28432;BME280;15664;51.302;7.744;2022-12-24T06:23:37;83259.03;;;-146.98;99.12
28432;BME280;15664;51.302;7.744;2022-12-24T06:26:03;83263.09;;;-146.98;99.04
28432;BME280;15664;51.302;7.744;2022-12-24T06:28:31;83254.97;;;-146.98;99.08
28432;BME280;15664;51.302;7.744;2022-12-24T06:30:57;83246.81;;;-146.98;99.18
28432;BME280;15664;51.302;7.744;2022-12-24T06:33:23;83257.00;;;-146.98;99.23
28432;BME280;15664;51.302;7.744;2022-12-24T06:35:48;83246.81;;;-146.98;98.89
28432;BME280;15664;51.302;7.744;2022-12-24T06:38:14;83242.75;;;-146.98;98.67
28432;BME280;15664;51.302;7.744;2022-12-24T06:40:42;83279.41;;;-146.98;98.03
28432;BME280;15664;51.302;7.744;2022-12-24T06:43:08;83218.31;;;-146.98;97.94
28432;BME280;15664;51.302;7.744;2022-12-24T06:45:33;83283.47;;;-146.98;98.02
28432;BME280;15664;51.302;7.744;2022-12-24T06:47:59;83246.81;;;-146.98;97.87
28432;BME280;15664;51.302;7.744;2022-12-24T06:50:25;83242.75;;;-146.98;97.96
28432;BME280;15664;51.302;7.744;2022-12-24T06:52:51;83216.28;;;-146.98;97.84
28432;BME280;15664;51.302;7.744;2022-12-24T06:55:16;83236.63;;;-146.98;97.83
28432;BME280;15664;51.302;7.744;2022-12-24T06:57:41;83224.41;;;-146.98;97.89
28432;BME280;15664;51.302;7.744;2022-12-24T07:00:08;83234.59;;;-146.98;97.53
28432;BME280;15664;51.302;7.744;2022-12-24T07:02:34;83226.44;;;-146.98;97.33
28432;BME280;15664;51.302;7.744;2022-12-24T07:04:59;83181.66;;;-146.98;97.00
28432;BME280;15664;51.302;7.744;2022-12-24T07:07:24;83185.72;;;-146.98;96.78
28432;BME280;15664;51.302;7.744;2022-12-24T07:09:49;83155.19;;;-146.98;96.44
28432;BME280;15664;51.302;7.744;2022-12-24T07:12:15;83187.75;;;-146.98;96.21
28432;BME280;15664;51.302;7.744;2022-12-24T07:14:40;83202.00;;;-146.98;96.29
28432;BME280;15664;51.302;7.744;2022-12-24T07:17:05;83212.19;;;-146.98;96.10
28432;BME280;15664;51.302;7.744;2022-12-24T07:19:30;83193.88;;;-146.98;95.72
28432;BME280;15664;51.302;7.744;2022-12-24T07:21:56;83197.94;;;-146.98;96.08
28432;BME280;15664;51.302;7.744;2022-12-24T07:24:21;83214.22;;;-146.98;96.15
28432;BME280;15664;51.302;7.744;2022-12-24T07:26:46;83212.19;;;-146.98;95.68
28432;BME280;15664;51.302;7.744;2022-12-24T07:29:12;83210.16;;;-146.98;95.83
28432;BME280;15664;51.302;7.744;2022-12-24T07:31:37;83206.09;;;-146.98;95.76
28432;BME280;15664;51.302;7.744;2022-12-24T07:34:02;83208.13;;;-146.98;95.79
28432;BME280;15664;51.302;7.744;2022-12-24T07:36:28;83224.41;;;-146.98;95.47
28432;BME280;15664;51.302;7.744;2022-12-24T07:38:54;83222.38;;;-146.98;95.03
28432;BME280;15664;51.302;7.744;2022-12-24T07:41:21;83202.00;;;-146.98;94.92
28432;BME280;15664;51.302;7.744;2022-12-24T07:43:46;83210.16;;;-146.98;95.43
28432;BME280;15664;51.302;7.744;2022-12-24T07:46:12;83240.72;;;-146.98;95.43
28432;BME280;15664;51.302;7.744;2022-12-24T07:48:37;83222.38;;;-146.98;95.35
28432;BME280;15664;51.302;7.744;2022-12-24T07:51:03;83210.16;;;-146.98;95.28
28432;BME280;15664;51.302;7.744;2022-12-24T07:53:29;83193.88;;;-146.98;95.12
28432;BME280;15664;51.302;7.744;2022-12-24T07:55:55;83222.38;;;-146.98;94.81
28432;BME280;15664;51.302;7.744;2022-12-24T07:58:20;83202.00;;;-146.98;94.78
28432;BME280;15664;51.302;7.744;2022-12-24T08:00:46;83222.38;;;-146.98;94.34
28432;BME280;15664;51.302;7.744;2022-12-24T08:03:19;83246.81;;;-146.98;94.16
28432;BME280;15664;51.302;7.744;2022-12-24T08:05:45;83234.59;;;-146.98;94.38
28432;BME280;15664;51.302;7.744;2022-12-24T08:08:11;83202.00;;;-146.98;93.64
28432;BME280;15664;51.302;7.744;2022-12-24T08:10:40;83234.59;;;-146.98;93.34
28432;BME280;15664;51.302;7.744;2022-12-24T08:13:06;83195.91;;;-146.98;93.06
28432;BME280;15664;51.302;7.744;2022-12-24T08:15:31;83218.31;;;-146.98;93.11
28432;BME280;15664;51.302;7.744;2022-12-24T08:17:57;83199.97;;;-146.98;93.64
28432;BME280;15664;51.302;7.744;2022-12-24T08:20:22;83173.50;;;-146.98;92.76
28432;BME280;15664;51.302;7.744;2022-12-24T08:22:48;83202.00;;;-146.98;92.72
28432;BME280;15664;51.302;7.744;2022-12-24T08:25:13;83147.03;;;-146.98;92.92
28432;BME280;15664;51.302;7.744;2022-12-24T08:27:38;83165.38;;;-146.98;92.81
28432;BME280;15664;51.302;7.744;2022-12-24T08:30:04;83163.31;;;-146.98;92.34
28432;BME280;15664;51.302;7.744;2022-12-24T08:32:30;83151.09;;;-146.98;92.23
28432;BME280;15664;51.302;7.744;2022-12-24T08:34:55;83189.78;;;-146.98;92.41
28432;BME280;15664;51.302;7.744;2022-12-24T08:37:21;83230.53;;;-146.98;92.14
28432;BME280;15664;51.302;7.744;2022-12-24T08:39:46;83165.38;;;-146.98;92.01
28432;BME280;15664;51.302;7.744;2022-12-24T08:42:11;83214.22;;;-146.98;92.32
28432;BME280;15664;51.302;7.744;2022-12-24T08:44:37;83173.50;;;-146.98;92.50
28432;BME280;15664;51.302;7.744;2022-12-24T08:47:02;83240.72;;;-146.98;92.61
28432;BME280;15664;51.302;7.744;2022-12-24T08:49:27;83193.88;;;-146.98;91.93
28432;BME280;15664;51.302;7.744;2022-12-24T08:51:53;83185.72;;;-146.98;91.45
28432;BME280;15664;51.302;7.744;2022-12-24T08:54:18;83218.31;;;-146.98;91.07
28432;BME280;15664;51.302;7.744;2022-12-24T08:56:43;83189.78;;;-146.98;91.19
28432;BME280;15664;51.302;7.744;2022-12-24T08:59:10;83220.34;;;-146.98;90.67
28432;BME280;15664;51.302;7.744;2022-12-24T09:01:36;83222.38;;;-146.98;91.10
28432;BME280;15664;51.302;7.744;2022-12-24T09:04:03;83197.94;;;-146.98;91.40
28432;BME280;15664;51.302;7.744;2022-12-24T09:06:28;83236.63;;;-146.98;90.89
28432;BME280;15664;51.302;7.744;2022-12-24T09:08:54;83128.72;;;-146.98;90.87
28432;BME280;15664;51.302;7.744;2022-12-24T09:11:19;83210.16;;;-146.98;90.97
28432;BME280;15664;51.302;7.744;2022-12-24T09:13:45;83171.47;;;-146.98;90.81
28432;BME280;15664;51.302;7.744;2022-12-24T09:16:11;83185.72;;;-146.98;91.15
28432;BME280;15664;51.302;7.744;2022-12-24T09:18:36;83169.44;;;-146.98;90.28
28432;BME280;15664;51.302;7.744;2022-12-24T09:21:07;83199.97;;;-146.98;90.24
28432;BME280;15664;51.302;7.744;2022-12-24T09:23:37;83189.78;;;-146.98;89.52
28432;BME280;15664;51.302;7.744;2022-12-24T09:26:22;83165.38;;;-146.98;89.02
28432;BME280;15664;51.302;7.744;2022-12-24T09:28:48;83157.22;;;-146.98;88.58
28432;BME280;15664;51.302;7.744;2022-12-24T09:31:14;83169.44;;;-146.98;88.82
28432;BME280;15664;51.302;7.744;2022-12-24T09:33:41;83132.78;;;-146.98;88.79
28432;BME280;15664;51.302;7.744;2022-12-24T09:36:08;83216.28;;;-146.98;88.78
28432;BME280;15664;51.302;7.744;2022-12-24T09:38:34;83173.50;;;-146.98;88.58
28432;BME280;15664;51.302;7.744;2022-12-24T09:41:00;83177.56;;;-146.98;88.99
28432;BME280;15664;51.302;7.744;2022-12-24T09:43:30;83165.38;;;-146.98;88.46
28432;BME280;15664;51.302;7.744;2022-12-24T09:48:24;83155.19;;;-146.98;89.09
28432;BME280;15664;51.302;7.744;2022-12-24T09:51:09;83177.56;;;-146.98;89.35
28432;BME280;15664;51.302;7.744;2022-12-24T09:53:54;83140.91;;;-146.98;89.34
28432;BME280;15664;51.302;7.744;2022-12-24T09:56:23;83171.47;;;-146.98;89.81
28432;BME280;15664;51.302;7.744;2022-12-24T09:59:01;83124.63;;;-146.98;90.21
28432;BME280;15664;51.302;7.744;2022-12-24T10:01:32;83189.78;;;-146.98;89.74
28432;BME280;15664;51.302;7.744;2022-12-24T10:04:06;83163.31;;;-146.98;89.88
28432;BME280;15664;51.302;7.744;2022-12-24T10:07:03;83279.41;;;-146.98;90.00
28432;BME280;15664;51.302;7.744;2022-12-24T10:10:00;83132.78;;;-146.98;89.69
28432;BME280;15664;51.302;7.744;2022-12-24T10:15:20;83149.06;;;-146.98;90.16
28432;BME280;15664;51.302;7.744;2022-12-24T10:18:10;83149.06;;;-146.98;90.72
28432;BME280;15664;51.302;7.744;2022-12-24T10:21:04;83161.28;;;-146.98;90.49
28432;BME280;15664;51.302;7.744;2022-12-24T10:26:08;83179.63;;;-146.98;90.50
28432;BME280;15664;51.302;7.744;2022-12-24T10:28:55;83181.66;;;-146.98;90.63
28432;BME280;15664;51.302;7.744;2022-12-24T10:31:26;83193.88;;;-146.98;91.00
28432;BME280;15664;51.302;7.744;2022-12-24T10:34:00;83161.28;;;-146.98;90.97
28432;BME280;15664;51.302;7.744;2022-12-24T10:36:28;83220.34;;;-146.98;90.68
28432;BME280;15664;51.302;7.744;2022-12-24T10:38:54;83159.25;;;-146.98;90.50
28432;BME280;15664;51.302;7.744;2022-12-24T10:41:20;83149.06;;;-146.98;90.21
28432;BME280;15664;51.302;7.744;2022-12-24T10:43:46;83110.38;;;-146.98;90.55
28432;BME280;15664;51.302;7.744;2022-12-24T10:46:27;83161.28;;;-146.98;90.46
28432;BME280;15664;51.302;7.744;2022-12-24T10:49:00;83136.84;;;-146.98;90.30
28432;BME280;15664;51.302;7.744;2022-12-24T10:54:05;83116.50;;;-146.98;91.69
28432;BME280;15664;51.302;7.744;2022-12-24T10:56:31;83153.13;;;-146.98;91.94
28432;BME280;15664;51.302;7.744;2022-12-24T10:59:03;83157.22;;;-146.98;92.21
28432;BME280;15664;51.302;7.744;2022-12-24T11:01:44;83126.66;;;-146.98;92.24
28432;BME280;15664;51.302;7.744;2022-12-24T11:04:18;83157.22;;;-146.98;92.24
28432;BME280;15664;51.302;7.744;2022-12-24T11:07:01;83173.50;;;-146.98;92.81
28432;BME280;15664;51.302;7.744;2022-12-24T11:09:57;83173.50;;;-146.98;93.31
28432;BME280;15664;51.302;7.744;2022-12-24T11:12:30;83157.22;;;-146.98;93.44
28432;BME280;15664;51.302;7.744;2022-12-24T11:15:04;83138.88;;;-146.98;93.22
28432;BME280;15664;51.302;7.744;2022-12-24T11:17:31;83157.22;;;-146.98;92.93
28432;BME280;15664;51.302;7.744;2022-12-24T11:19:57;83191.84;;;-146.98;93.17
28432;BME280;15664;51.302;7.744;2022-12-24T11:22:26;83149.06;;;-146.98;93.54
28432;BME280;15664;51.302;7.744;2022-12-24T11:25:18;83163.31;;;-146.98;93.65
28432;BME280;15664;51.302;7.744;2022-12-24T11:27:46;83153.13;;;-146.98;93.35
28432;BME280;15664;51.302;7.744;2022-12-24T11:32:45;83142.97;;;-146.98;92.68
28432;BME280;15664;51.302;7.744;2022-12-24T11:35:17;83181.66;;;-146.98;92.36
28432;BME280;15664;51.302;7.744;2022-12-24T11:37:43;83136.84;;;-146.98;92.09
28432;BME280;15664;51.302;7.744;2022-12-24T11:40:22;83085.94;;;-146.98;88.91
28432;BME280;15664;51.302;7.744;2022-12-24T11:42:48;83079.84;;;-146.98;87.96
28432;BME280;15664;51.302;7.744;2022-12-24T11:45:21;83085.94;;;-146.98;85.77
28432;BME280;15664;51.302;7.744;2022-12-24T11:47:48;83051.31;;;-146.98;85.12
28432;BME280;15664;51.302;7.744;2022-12-24T11:52:57;83069.66;;;-146.98;86.10
28432;BME280;15664;51.302;7.744;2022-12-24T11:58:16;83096.13;;;-146.98;87.45
28432;BME280;15664;51.302;7.744;2022-12-24T12:00:45;83118.53;;;-146.98;87.05
28432;BME280;15664;51.302;7.744;2022-12-24T12:03:39;83124.63;;;-146.98;87.47
28432;BME280;15664;51.302;7.744;2022-12-24T12:08:45;83057.44;;;-146.98;87.82
28432;BME280;15664;51.302;7.744;2022-12-24T12:11:13;83092.06;;;-146.98;87.04
28432;BME280;15664;51.302;7.744;2022-12-24T12:13:40;83096.13;;;-146.98;87.88
28432;BME280;15664;51.302;7.744;2022-12-24T12:16:47;83071.69;;;-146.98;88.08
28432;BME280;15664;51.302;7.744;2022-12-24T12:19:37;83094.09;;;-146.98;88.20
28432;BME280;15664;51.302;7.744;2022-12-24T12:22:16;83092.06;;;-146.98;87.98
28432;BME280;15664;51.302;7.744;2022-12-24T12:24:47;83079.84;;;-146.98;88.33
28432;BME280;15664;51.302;7.744;2022-12-24T12:27:20;83106.31;;;-146.98;87.79
28432;BME280;15664;51.302;7.744;2022-12-24T12:29:55;83132.78;;;-146.98;87.68
28432;BME280;15664;51.302;7.744;2022-12-24T12:32:27;83079.84;;;-146.98;86.32
28432;BME280;15664;51.302;7.744;2022-12-24T12:35:04;83122.59;;;-146.98;86.47
28432;BME280;15664;51.302;7.744;2022-12-24T12:37:41;83100.19;;;-146.98;86.07
28432;BME280;15664;51.302;7.744;2022-12-24T12:40:13;83128.72;;;-146.98;83.70
28432;BME280;15664;51.302;7.744;2022-12-24T12:42:48;83059.47;;;-146.98;84.02
28432;BME280;15664;51.302;7.744;2022-12-24T12:50:46;83083.91;;;-146.98;83.15
28432;BME280;15664;51.302;7.744;2022-12-24T12:58:52;83002.44;;;-146.98;82.09
28432;BME280;15664;51.302;7.744;2022-12-24T13:01:26;83053.34;;;-146.98;81.39
28432;BME280;15664;51.302;7.744;2022-12-24T13:04:15;83016.72;;;-146.98;80.81
28432;BME280;15664;51.302;7.744;2022-12-24T13:07:16;83035.03;;;-146.98;80.90
28432;BME280;15664;51.302;7.744;2022-12-24T13:21:43;83002.44;;;-146.98;81.23
28432;BME280;15664;51.302;7.744;2022-12-24T13:24:24;83047.25;;;-146.98;80.98
28432;BME280;15664;51.302;7.744;2022-12-24T13:30:36;83045.22;;;-146.98;82.09
28432;BME280;15664;51.302;7.744;2022-12-24T13:33:03;83026.88;;;-146.98;82.22
28432;BME280;15664;51.302;7.744;2022-12-24T13:35:31;83020.78;;;-146.98;82.45
28432;BME280;15664;51.302;7.744;2022-12-24T13:40:50;83043.19;;;-146.98;82.16
28432;BME280;15664;51.302;7.744;2022-12-24T13:43:16;83041.13;;;-146.98;82.87
28432;BME280;15664;51.302;7.744;2022-12-24T13:45:43;83067.63;;;-146.98;81.89
28432;BME280;15664;51.302;7.744;2022-12-24T13:50:39;83028.91;;;-146.98;82.82
28432;BME280;15664;51.302;7.744;2022-12-24T13:55:53;83079.84;;;-146.98;83.00
28432;BME280;15664;51.302;7.744;2022-12-24T13:58:19;83012.63;;;-146.98;82.90
28432;BME280;15664;51.302;7.744;2022-12-24T14:00:55;83132.78;;;-146.98;82.95
28432;BME280;15664;51.302;7.744;2022-12-24T14:03:32;83116.50;;;-146.98;83.12
28432;BME280;15664;51.302;7.744;2022-12-24T14:06:02;83092.06;;;-146.98;83.40
28432;BME280;15664;51.302;7.744;2022-12-24T14:08:33;83065.56;;;-146.98;83.27